createdAt,value
2023-01-20T00:01:01.776Z,100.00
2023-01-20T00:03:34.959Z,100.00
2023-01-20T00:06:08.028Z,100.00
2023-01-20T00:08:41.670Z,100.00
2023-01-20T00:11:15.197Z,100.00
2023-01-20T00:13:48.033Z,100.00
2023-01-20T00:16:20.985Z,100.00
2023-01-20T00:18:54.771Z,100.00
2023-01-20T00:21:27.578Z,100.00
2023-01-20T00:24:00.914Z,100.00
2023-01-20T00:26:33.749Z,100.00
2023-01-20T00:29:06.742Z,100.00
2023-01-20T00:31:40.032Z,100.00
2023-01-20T00:34:13.225Z,100.00
2023-01-20T00:36:46.037Z,100.00
2023-01-20T00:39:18.909Z,100.00
2023-01-20T00:41:51.923Z,100.00
2023-01-20T00:44:24.832Z,100.00
2023-01-20T00:46:57.735Z,100.00
2023-01-20T00:49:30.851Z,100.00
2023-01-20T00:52:03.809Z,100.00
2023-01-20T00:54:36.694Z,100.00
2023-01-20T00:57:09.534Z,100.00
2023-01-20T00:59:42.313Z,100.00
2023-01-20T01:02:15.227Z,100.00
2023-01-20T01:04:53.258Z,100.00
2023-01-20T01:07:26.209Z,100.00
2023-01-20T01:09:59.063Z,100.00
2023-01-20T01:12:31.991Z,100.00
2023-01-20T01:15:05.654Z,100.00
2023-01-20T01:17:38.845Z,100.00
2023-01-20T01:20:13.948Z,100.00
2023-01-20T01:22:46.895Z,100.00
2023-01-20T01:25:20.573Z,100.00
2023-01-20T01:27:53.361Z,100.00
2023-01-20T01:30:26.403Z,100.00
2023-01-20T01:32:59.243Z,100.00
2023-01-20T01:35:32.259Z,100.00
2023-01-20T01:38:05.048Z,100.00
2023-01-20T01:40:37.986Z,100.00
2023-01-20T01:43:21.309Z,100.00
2023-01-20T01:45:54.385Z,100.00
2023-01-20T01:48:43.540Z,100.00
2023-01-20T01:51:23.608Z,100.00
2023-01-20T01:54:00.359Z,100.00
2023-01-20T01:56:33.620Z,100.00
2023-01-20T01:59:07.423Z,100.00
2023-01-20T02:01:44.086Z,100.00
2023-01-20T02:04:22.122Z,100.00
2023-01-20T02:07:00.800Z,100.00
2023-01-20T02:09:34.048Z,100.00
2023-01-20T02:12:10.701Z,100.00
2023-01-20T02:14:54.049Z,100.00
2023-01-20T02:17:58.919Z,100.00
2023-01-20T02:21:22.217Z,100.00
2023-01-20T02:24:22.448Z,100.00
2023-01-20T02:27:22.709Z,100.00
2023-01-20T02:30:16.859Z,100.00
2023-01-20T02:33:19.819Z,100.00
2023-01-20T02:35:59.566Z,100.00
2023-01-20T02:38:58.271Z,100.00
2023-01-20T02:42:10.762Z,100.00
2023-01-20T02:45:03.842Z,100.00
2023-01-20T02:47:51.691Z,100.00
2023-01-20T02:50:38.319Z,100.00
2023-01-20T02:53:13.953Z,100.00
2023-01-20T02:55:51.123Z,100.00
2023-01-20T02:58:34.887Z,100.00
2023-01-20T03:01:18.304Z,100.00
2023-01-20T03:03:53.505Z,100.00
2023-01-20T03:06:30.936Z,100.00
2023-01-20T03:09:10.827Z,100.00
2023-01-20T03:11:48.145Z,100.00
2023-01-20T03:14:21.747Z,100.00
2023-01-20T03:16:54.711Z,100.00
2023-01-20T03:19:28.295Z,100.00
2023-01-20T03:22:01.200Z,100.00
2023-01-20T03:24:35.663Z,100.00
2023-01-20T03:27:09.399Z,100.00
2023-01-20T03:29:42.337Z,100.00
2023-01-20T03:32:15.952Z,100.00
2023-01-20T03:34:49.080Z,100.00
2023-01-20T03:37:22.020Z,100.00
2023-01-20T03:39:54.986Z,100.00
2023-01-20T03:42:32.232Z,100.00
2023-01-20T03:45:18.767Z,100.00
2023-01-20T03:48:07.155Z,100.00
2023-01-20T03:50:50.374Z,100.00
2023-01-20T03:53:40.897Z,100.00
2023-01-20T03:56:33.515Z,100.00
2023-01-20T03:59:07.815Z,100.00
2023-01-20T04:01:40.721Z,100.00
2023-01-20T04:04:19.746Z,100.00
2023-01-20T04:06:53.496Z,100.00
2023-01-20T04:09:30.315Z,100.00
2023-01-20T04:12:03.443Z,100.00
2023-01-20T04:14:38.069Z,100.00
2023-01-20T04:17:10.950Z,100.00
2023-01-20T04:19:44.644Z,100.00
2023-01-20T04:22:28.655Z,100.00
2023-01-20T04:25:11.866Z,100.00
2023-01-20T04:27:45.335Z,100.00
2023-01-20T04:30:18.750Z,100.00
2023-01-20T04:32:51.544Z,100.00
2023-01-20T04:35:25.162Z,100.00
2023-01-20T04:37:58.257Z,100.00
2023-01-20T04:40:31.060Z,100.00
2023-01-20T04:43:04.188Z,100.00
2023-01-20T04:45:38.169Z,100.00
2023-01-20T04:48:12.162Z,100.00
2023-01-20T04:50:47.174Z,100.00
2023-01-20T04:53:20.508Z,100.00
2023-01-20T04:55:53.426Z,100.00
2023-01-20T04:58:26.367Z,100.00
2023-01-20T05:01:00.995Z,100.00
2023-01-20T05:03:34.380Z,100.00
2023-01-20T05:06:07.510Z,100.00
2023-01-20T05:08:40.423Z,100.00
2023-01-20T05:11:13.207Z,100.00
2023-01-20T05:13:46.216Z,100.00
2023-01-20T05:16:23.618Z,100.00
2023-01-20T05:18:56.644Z,100.00
2023-01-20T05:21:29.539Z,100.00
2023-01-20T05:24:02.297Z,100.00
2023-01-20T05:26:35.230Z,100.00
2023-01-20T05:29:09.411Z,100.00
2023-01-20T05:31:42.929Z,100.00
2023-01-20T05:34:16.708Z,100.00
2023-01-20T05:36:54.658Z,100.00
2023-01-20T05:39:27.537Z,100.00
2023-01-20T05:42:00.786Z,100.00
2023-01-20T05:44:33.636Z,100.00
2023-01-20T05:47:06.452Z,100.00
2023-01-20T05:49:39.398Z,100.00
2023-01-20T05:52:12.638Z,100.00
2023-01-20T05:54:45.387Z,100.00
2023-01-20T05:57:18.552Z,100.00
2023-01-20T05:59:52.379Z,100.00
2023-01-20T06:02:25.154Z,100.00
2023-01-20T06:04:58.022Z,100.00
2023-01-20T06:07:32.105Z,100.00
2023-01-20T06:10:04.076Z,100.00
2023-01-20T06:12:36.990Z,100.00
2023-01-20T06:15:10.809Z,100.00
2023-01-20T06:17:43.713Z,100.00
2023-01-20T06:20:16.683Z,100.00
2023-01-20T06:22:49.668Z,100.00
2023-01-20T06:25:22.588Z,100.00
2023-01-20T06:27:55.309Z,100.00
2023-01-20T06:30:28.054Z,100.00
2023-01-20T06:33:00.952Z,100.00
2023-01-20T06:35:33.863Z,100.00
2023-01-20T06:38:06.673Z,100.00
2023-01-20T06:40:39.489Z,100.00
2023-01-20T06:43:12.337Z,100.00
2023-01-20T06:45:45.086Z,100.00
2023-01-20T06:48:17.953Z,100.00
2023-01-20T06:50:50.713Z,100.00
2023-01-20T06:53:23.674Z,100.00
2023-01-20T06:55:58.721Z,100.00
2023-01-20T06:58:33.728Z,100.00
2023-01-20T07:01:11.099Z,100.00
2023-01-20T07:03:44.956Z,100.00
2023-01-20T07:06:35.960Z,100.00
2023-01-20T07:09:11.895Z,100.00
2023-01-20T07:11:44.597Z,100.00
2023-01-20T07:14:17.576Z,100.00
2023-01-20T07:16:50.586Z,100.00
2023-01-20T07:19:23.461Z,100.00
2023-01-20T07:21:56.449Z,100.00
2023-01-20T07:24:29.571Z,100.00
2023-01-20T07:27:02.519Z,100.00
2023-01-20T07:29:35.352Z,100.00
2023-01-20T07:32:08.149Z,100.00
2023-01-20T07:34:40.869Z,100.00
2023-01-20T07:37:13.616Z,100.00
2023-01-20T07:39:46.437Z,100.00
2023-01-20T07:42:19.232Z,100.00
2023-01-20T07:44:52.757Z,100.00
2023-01-20T07:47:25.511Z,100.00
2023-01-20T07:49:58.343Z,100.00
2023-01-20T07:52:31.147Z,100.00
2023-01-20T07:55:03.920Z,100.00
2023-01-20T07:57:37.083Z,100.00
2023-01-20T08:00:11.630Z,100.00
2023-01-20T08:02:44.645Z,100.00
2023-01-20T08:05:17.786Z,100.00
2023-01-20T08:07:54.519Z,100.00
2023-01-20T08:10:29.264Z,100.00
2023-01-20T08:13:02.112Z,100.00
2023-01-20T08:15:35.361Z,100.00
2023-01-20T08:18:08.273Z,100.00
2023-01-20T08:20:42.789Z,100.00
2023-01-20T08:23:16.087Z,100.00
2023-01-20T08:25:49.101Z,100.00
2023-01-20T08:28:23.332Z,100.00
2023-01-20T08:30:57.400Z,100.00
2023-01-20T08:33:30.172Z,100.00
2023-01-20T08:36:14.201Z,100.00
2023-01-20T08:38:48.271Z,100.00
2023-01-20T08:41:38.785Z,100.00
2023-01-20T08:44:15.988Z,100.00
2023-01-20T08:46:50.646Z,100.00
2023-01-20T08:49:23.833Z,100.00
2023-01-20T08:51:57.206Z,100.00
2023-01-20T08:54:31.837Z,100.00
2023-01-20T08:57:04.646Z,100.00
2023-01-20T08:59:38.612Z,100.00
2023-01-20T09:02:12.676Z,100.00
2023-01-20T09:04:53.508Z,100.00
2023-01-20T09:07:29.066Z,100.00
2023-01-20T09:10:02.019Z,100.00
2023-01-20T09:12:35.176Z,100.00
2023-01-20T09:15:09.418Z,100.00
2023-01-20T09:17:42.818Z,100.00
2023-01-20T09:20:15.645Z,100.00
2023-01-20T09:22:48.650Z,100.00
2023-01-20T09:25:21.573Z,100.00
2023-01-20T09:27:54.686Z,100.00
2023-01-20T09:30:27.483Z,100.00
2023-01-20T09:33:00.423Z,100.00
2023-01-20T09:35:33.187Z,100.00
2023-01-20T09:38:24.195Z,100.00
2023-01-20T09:41:36.575Z,100.00
2023-01-20T09:44:40.459Z,100.00
2023-01-20T09:47:35.661Z,100.00
2023-01-20T09:50:49.164Z,100.00
2023-01-20T09:53:38.490Z,100.00
2023-01-20T09:56:19.196Z,100.00
2023-01-20T09:59:14.257Z,100.00
2023-01-20T10:02:01.900Z,100.00
2023-01-20T10:04:44.925Z,100.00
2023-01-20T10:07:37.662Z,100.00
2023-01-20T10:10:30.626Z,100.00
2023-01-20T10:13:11.508Z,100.00
2023-01-20T10:15:49.015Z,100.00
2023-01-20T10:18:49.984Z,100.00
2023-01-20T10:21:43.919Z,100.00
2023-01-20T10:24:22.402Z,100.00
2023-01-20T10:27:05.438Z,100.00
2023-01-20T10:29:42.678Z,100.00
2023-01-20T10:32:30.737Z,100.00
2023-01-20T10:35:10.922Z,100.00
2023-01-20T10:37:44.368Z,100.00
2023-01-20T10:40:22.525Z,100.00
2023-01-20T10:43:01.478Z,100.00
2023-01-20T10:45:44.673Z,100.00
2023-01-20T10:48:55.938Z,100.00
2023-01-20T10:51:55.191Z,100.00
2023-01-20T10:54:44.969Z,100.00
2023-01-20T10:57:19.892Z,100.00
2023-01-20T11:00:00.469Z,100.00
2023-01-20T11:02:38.155Z,100.00
2023-01-20T11:05:23.559Z,100.00
2023-01-20T11:07:57.414Z,100.00
2023-01-20T11:10:33.784Z,100.00
2023-01-20T11:13:06.798Z,100.00
2023-01-20T11:15:45.079Z,100.00
2023-01-20T11:18:22.338Z,100.00
2023-01-20T11:21:00.120Z,100.00
2023-01-20T11:23:58.504Z,100.00
2023-01-20T11:26:41.751Z,100.00
2023-01-20T11:29:19.506Z,100.00
2023-01-20T11:31:59.902Z,100.00
2023-01-20T11:34:36.491Z,99.45
2023-01-20T11:37:28.096Z,99.31
2023-01-20T11:40:20.519Z,99.38
2023-01-20T11:42:55.797Z,99.43
2023-01-20T11:45:37.746Z,99.14
2023-01-20T11:48:21.710Z,99.21
2023-01-20T11:50:59.134Z,99.41
2023-01-20T11:53:34.544Z,99.65
2023-01-20T11:56:20.963Z,99.68
2023-01-20T11:59:02.276Z,99.73
2023-01-20T12:02:02.737Z,99.77
2023-01-20T12:04:58.374Z,99.68
2023-01-20T12:07:38.766Z,99.89
2023-01-20T12:10:27.196Z,99.99
2023-01-20T12:13:15.640Z,99.98
2023-01-20T12:15:53.454Z,99.94
2023-01-20T12:18:35.862Z,99.91
2023-01-20T12:21:18.235Z,100.00
2023-01-20T12:24:04.866Z,100.00
2023-01-20T12:26:38.283Z,100.00
2023-01-20T12:29:15.811Z,100.00
2023-01-20T12:31:49.744Z,100.00
2023-01-20T12:34:31.718Z,100.00
2023-01-20T12:37:17.228Z,100.00
2023-01-20T12:40:10.959Z,100.00
2023-01-20T12:43:23.301Z,100.00
2023-01-20T12:46:18.680Z,100.00
2023-01-20T12:49:14.241Z,100.00
2023-01-20T12:52:18.959Z,100.00
2023-01-20T12:55:19.373Z,100.00
2023-01-20T12:57:57.423Z,100.00
2023-01-20T13:00:55.002Z,100.00
2023-01-20T13:03:56.691Z,100.00
2023-01-20T13:07:21.394Z,100.00
2023-01-20T13:10:19.768Z,100.00
2023-01-20T13:13:13.536Z,100.00
2023-01-20T13:15:53.771Z,100.00
2023-01-20T13:18:36.937Z,100.00
2023-01-20T13:21:18.007Z,100.00
2023-01-20T13:23:52.135Z,100.00
2023-01-20T13:26:27.492Z,100.00
2023-01-20T13:29:02.703Z,100.00
2023-01-20T13:31:44.505Z,100.00
2023-01-20T13:34:31.486Z,100.00
2023-01-20T13:37:21.611Z,100.00
2023-01-20T13:39:55.862Z,100.00
2023-01-20T13:42:45.656Z,100.00
2023-01-20T13:45:23.873Z,100.00
2023-01-20T13:48:04.036Z,100.00
2023-01-20T13:50:46.519Z,100.00
2023-01-20T13:53:25.870Z,100.00
2023-01-20T13:56:02.723Z,100.00
2023-01-20T13:58:36.678Z,100.00
2023-01-20T14:01:13.473Z,100.00
2023-01-20T14:03:46.241Z,100.00
2023-01-20T14:06:23.588Z,100.00
2023-01-20T14:08:56.495Z,100.00
2023-01-20T14:11:31.557Z,100.00
2023-01-20T14:14:09.463Z,100.00
2023-01-20T14:16:44.733Z,100.00
2023-01-20T14:19:33.344Z,100.00
2023-01-20T14:22:28.534Z,100.00
2023-01-20T14:25:02.119Z,100.00
2023-01-20T14:27:37.939Z,100.00
2023-01-20T14:30:27.069Z,100.00
2023-01-20T14:33:00.717Z,100.00
2023-01-20T14:35:35.821Z,100.00
2023-01-20T14:38:11.753Z,100.00
2023-01-20T14:40:44.601Z,100.00
2023-01-20T14:43:27.522Z,100.00
2023-01-20T14:46:00.687Z,100.00
2023-01-20T14:48:35.195Z,99.97
2023-01-20T14:51:08.307Z,99.81
2023-01-20T14:53:41.785Z,99.73
2023-01-20T14:56:20.538Z,99.49
2023-01-20T14:58:55.051Z,99.33
2023-01-20T15:01:28.692Z,99.22
2023-01-20T15:04:02.861Z,99.01
2023-01-20T15:06:35.963Z,98.94
2023-01-20T15:09:27.840Z,98.79
2023-01-20T15:12:39.959Z,98.76
2023-01-20T15:15:26.238Z,98.64
2023-01-20T15:18:23.533Z,98.63
2023-01-20T15:21:15.631Z,98.65
2023-01-20T15:23:39.926Z,98.55
2023-01-20T15:26:26.162Z,98.53
2023-01-20T15:29:00.454Z,98.60
2023-01-20T15:31:33.694Z,98.63
2023-01-20T15:34:07.083Z,98.63
2023-01-20T15:36:43.260Z,98.77
2023-01-20T15:39:18.611Z,98.85
2023-01-20T15:41:54.867Z,98.97
2023-01-20T15:44:28.392Z,99.04
2023-01-20T15:47:01.195Z,99.12
2023-01-20T15:49:34.121Z,99.09
2023-01-20T15:52:08.850Z,99.14
2023-01-20T15:54:42.396Z,99.27
2023-01-20T15:57:17.019Z,99.44
2023-01-20T15:59:50.381Z,99.65
2023-01-20T16:02:25.042Z,99.80
2023-01-20T16:04:57.812Z,99.92
2023-01-20T16:07:30.696Z,100.00
2023-01-20T16:10:04.851Z,100.00
2023-01-20T16:12:38.129Z,100.00
2023-01-20T16:15:17.380Z,100.00
2023-01-20T16:17:53.102Z,100.00
2023-01-20T16:20:27.693Z,100.00
2023-01-20T16:23:01.127Z,100.00
2023-01-20T16:25:35.521Z,100.00
2023-01-20T16:28:24.437Z,100.00
2023-01-20T16:30:58.201Z,100.00
2023-01-20T16:33:31.337Z,100.00
2023-01-20T16:36:04.010Z,100.00
2023-01-20T16:38:37.417Z,100.00
2023-01-20T16:41:23.012Z,100.00
2023-01-20T16:43:57.325Z,100.00
2023-01-20T16:46:33.132Z,100.00
2023-01-20T16:49:05.975Z,100.00
2023-01-20T16:51:39.107Z,100.00
2023-01-20T16:54:12.461Z,100.00
2023-01-20T16:56:45.190Z,100.00
2023-01-20T16:59:18.098Z,100.00
2023-01-20T17:01:51.541Z,100.00
2023-01-20T17:04:24.636Z,100.00
2023-01-20T17:06:57.544Z,100.00
2023-01-20T17:09:30.319Z,100.00
2023-01-20T17:12:03.836Z,100.00
2023-01-20T17:14:37.155Z,100.00
2023-01-20T17:17:10.046Z,100.00
2023-01-20T17:19:43.096Z,100.00
2023-01-20T17:22:18.068Z,100.00
2023-01-20T17:24:50.940Z,100.00
2023-01-20T17:27:23.658Z,100.00
2023-01-20T17:29:56.605Z,100.00
2023-01-20T17:32:29.461Z,100.00
2023-01-20T17:35:02.616Z,100.00
2023-01-20T17:37:35.827Z,100.00
2023-01-20T17:40:10.924Z,100.00
2023-01-20T17:42:44.742Z,100.00
2023-01-20T17:45:17.524Z,100.00
2023-01-20T17:47:54.089Z,100.00
2023-01-20T17:50:28.717Z,100.00
2023-01-20T17:53:01.808Z,100.00
2023-01-20T17:55:34.776Z,100.00
2023-01-20T17:58:08.002Z,100.00
2023-01-20T18:00:41.747Z,100.00
2023-01-20T18:03:14.689Z,100.00
2023-01-20T18:05:47.570Z,100.00
2023-01-20T18:08:20.666Z,100.00
2023-01-20T18:10:53.542Z,100.00
2023-01-20T18:13:26.740Z,100.00
2023-01-20T18:16:07.751Z,100.00
2023-01-20T18:18:44.688Z,100.00
2023-01-20T18:21:21.256Z,100.00
2023-01-20T18:23:54.549Z,100.00
2023-01-20T18:26:29.753Z,100.00
2023-01-20T18:29:08.836Z,100.00
2023-01-20T18:31:41.877Z,100.00
2023-01-20T18:34:18.741Z,100.00
2023-01-20T18:36:51.648Z,100.00
2023-01-20T18:39:27.391Z,100.00
2023-01-20T18:42:00.628Z,100.00
2023-01-20T18:44:33.751Z,100.00
2023-01-20T18:47:06.899Z,100.00
2023-01-20T18:49:40.091Z,100.00
2023-01-20T18:52:12.775Z,100.00
2023-01-20T18:54:46.041Z,100.00
2023-01-20T18:57:19.174Z,100.00
2023-01-20T18:59:51.928Z,100.00
2023-01-20T19:02:24.929Z,100.00
2023-01-20T19:04:57.743Z,100.00
2023-01-20T19:07:30.605Z,100.00
2023-01-20T19:10:03.823Z,100.00
2023-01-20T19:12:37.280Z,100.00
2023-01-20T19:15:10.865Z,100.00
2023-01-20T19:17:44.044Z,100.00
2023-01-20T19:20:17.872Z,100.00
2023-01-20T19:22:51.296Z,100.00
2023-01-20T19:25:26.143Z,100.00
2023-01-20T19:27:59.078Z,100.00
2023-01-20T19:30:32.031Z,100.00
2023-01-20T19:33:05.105Z,100.00
2023-01-20T19:35:38.731Z,100.00
2023-01-20T19:38:12.492Z,100.00
2023-01-20T19:40:45.684Z,100.00
2023-01-20T19:43:18.615Z,100.00
2023-01-20T19:45:51.421Z,100.00
2023-01-20T19:48:24.979Z,100.00
2023-01-20T19:50:59.810Z,100.00
2023-01-20T19:53:33.195Z,100.00
2023-01-20T19:56:08.228Z,100.00
2023-01-20T19:58:42.194Z,100.00
2023-01-20T20:01:21.307Z,100.00
2023-01-20T20:03:55.467Z,100.00
2023-01-20T20:06:32.824Z,100.00
2023-01-20T20:09:10.390Z,100.00
2023-01-20T20:11:44.357Z,100.00
2023-01-20T20:14:20.686Z,100.00
2023-01-20T20:16:53.810Z,100.00
2023-01-20T20:19:26.600Z,100.00
2023-01-20T20:21:59.349Z,100.00
2023-01-20T20:24:32.799Z,100.00
2023-01-20T20:27:05.876Z,100.00
2023-01-20T20:29:38.667Z,100.00
2023-01-20T20:32:12.063Z,100.00
2023-01-20T20:34:45.441Z,100.00
2023-01-20T20:37:18.497Z,100.00
2023-01-20T20:39:51.488Z,100.00
2023-01-20T20:42:24.608Z,100.00
2023-01-20T20:44:58.256Z,100.00
2023-01-20T20:47:32.679Z,100.00
2023-01-20T20:50:06.144Z,100.00
2023-01-20T20:52:39.168Z,100.00
2023-01-20T20:55:12.770Z,100.00
2023-01-20T20:57:46.072Z,99.92
2023-01-20T21:00:21.273Z,99.69
2023-01-20T21:02:54.300Z,99.44
2023-01-20T21:05:27.284Z,99.30
2023-01-20T21:08:00.104Z,99.08
2023-01-20T21:10:33.577Z,98.89
2023-01-20T21:13:07.985Z,98.67
2023-01-20T21:15:40.794Z,98.50
2023-01-20T21:18:14.222Z,98.38
2023-01-20T21:20:47.521Z,98.23
2023-01-20T21:23:20.154Z,97.93
2023-01-20T21:25:53.523Z,97.82
2023-01-20T21:28:26.740Z,97.57
2023-01-20T21:30:59.557Z,97.47
2023-01-20T21:33:32.735Z,97.36
2023-01-20T21:36:07.454Z,97.22
2023-01-20T21:38:43.161Z,97.08
2023-01-20T21:41:18.225Z,97.05
2023-01-20T21:44:09.284Z,96.87
2023-01-20T21:46:42.569Z,96.57
2023-01-20T21:49:33.682Z,96.38
2023-01-20T21:52:24.979Z,96.18
2023-01-20T21:54:58.336Z,95.82
2023-01-20T21:57:33.104Z,95.48
2023-01-20T22:00:06.787Z,95.37
2023-01-20T22:02:44.935Z,95.37
2023-01-20T22:05:18.717Z,95.26
2023-01-20T22:07:51.549Z,95.14
2023-01-20T22:10:24.273Z,95.04
2023-01-20T22:12:58.110Z,94.82
2023-01-20T22:15:30.842Z,94.73
2023-01-20T22:18:03.780Z,94.65
2023-01-20T22:20:36.428Z,94.57
2023-01-20T22:23:09.402Z,94.51
2023-01-20T22:25:42.802Z,94.43
2023-01-20T22:28:15.695Z,94.12
2023-01-20T22:30:48.410Z,93.96
2023-01-20T22:33:21.544Z,93.90
2023-01-20T22:35:56.459Z,93.81
2023-01-20T22:38:30.779Z,93.64
2023-01-20T22:41:09.078Z,93.38
2023-01-20T22:43:43.793Z,93.38
2023-01-20T22:46:19.658Z,93.21
2023-01-20T22:48:52.836Z,93.00
2023-01-20T22:51:30.963Z,92.99
2023-01-20T22:54:04.355Z,92.78
2023-01-20T22:56:37.153Z,92.65
2023-01-20T22:59:11.694Z,92.54
2023-01-20T23:01:43.552Z,92.34
2023-01-20T23:04:16.254Z,92.07
2023-01-20T23:06:49.222Z,91.89
2023-01-20T23:09:22.745Z,91.80
2023-01-20T23:11:55.661Z,91.70
2023-01-20T23:14:46.565Z,91.51
2023-01-20T23:17:19.312Z,91.17
2023-01-20T23:19:52.694Z,90.98
2023-01-20T23:22:26.292Z,90.69
2023-01-20T23:24:59.827Z,90.75
2023-01-20T23:27:32.764Z,90.71
2023-01-20T23:30:06.127Z,90.66
2023-01-20T23:32:39.682Z,90.67
2023-01-20T23:35:12.588Z,90.71
2023-01-20T23:37:46.144Z,90.41
2023-01-20T23:40:19.671Z,90.35
2023-01-20T23:42:53.197Z,90.11
2023-01-20T23:45:26.079Z,90.03
2023-01-20T23:47:59.045Z,90.11
2023-01-20T23:50:32.113Z,89.96
2023-01-20T23:53:05.221Z,89.96
2023-01-20T23:55:39.616Z,90.00
2023-01-20T23:58:12.978Z,90.12
